Time;durP1;ratioP1;P1;durP2;ratioP2;P2;SDS_P1;SDS_P2;PMS_P1;PMS_P2;Temp;Humidity;BMP_temperature;BMP_pressure;BME280_temperature;BME280_humidity;BME280_pressure;Samples;Min_cycle;Max_cycle;Signal;HPM_P1;HPM_P2
2023/07/24 00:02:08;;;;;;;7.53;5.40;;;17.40;99.90;;;;;;4933782;28;20124;-49
2023/07/24 00:04:34;;;;;;;8.95;5.28;;;17.40;99.90;;;;;;4946669;28;20614;-49
2023/07/24 00:07:00;;;;;;;9.52;5.57;;;17.40;99.90;;;;;;4948782;28;20495;-50
2023/07/24 00:09:26;;;;;;;11.65;5.50;;;17.40;99.90;;;;;;4932512;28;20057;-51
2023/07/24 00:11:52;;;;;;;8.63;4.85;;;17.40;99.90;;;;;;4949645;28;20043;-49
2023/07/24 00:14:17;;;;;;;14.20;5.80;;;17.30;99.90;;;;;;4951229;28;20053;-49
2023/07/24 00:16:43;;;;;;;10.82;5.07;;;17.30;99.90;;;;;;4928786;28;20059;-50
2023/07/24 00:19:09;;;;;;;9.77;5.43;;;17.30;99.90;;;;;;4947044;28;20094;-49
2023/07/24 00:21:34;;;;;;;11.00;5.18;;;17.30;99.90;;;;;;4945949;28;20412;-50
2023/07/24 00:24:00;;;;;;;11.38;5.05;;;17.30;99.90;;;;;;4949766;28;20039;-49
2023/07/24 00:26:26;;;;;;;7.32;4.82;;;17.30;99.90;;;;;;4922260;28;20631;-50
2023/07/24 00:28:52;;;;;;;9.57;5.05;;;17.30;99.90;;;;;;4951473;28;20099;-49
2023/07/24 00:31:17;;;;;;;9.02;4.57;;;17.30;99.90;;;;;;4949234;28;20042;-50
2023/07/24 00:33:43;;;;;;;14.65;5.25;;;17.30;99.90;;;;;;4947599;28;20117;-50
2023/07/24 00:36:09;;;;;;;9.50;5.25;;;17.30;99.90;;;;;;4948465;28;20043;-49
2023/07/24 00:38:35;;;;;;;9.43;5.40;;;17.20;99.90;;;;;;4949704;28;20039;-51
2023/07/24 00:41:00;;;;;;;7.60;5.00;;;17.20;99.90;;;;;;4935079;28;20105;-49
2023/07/24 00:43:26;;;;;;;11.75;5.72;;;17.30;99.90;;;;;;4931843;28;20047;-48
2023/07/24 00:45:53;;;;;;;12.52;5.05;;;17.20;99.90;;;;;;4953821;28;20054;-49
2023/07/24 00:48:19;;;;;;;13.38;5.10;;;17.20;99.90;;;;;;4953182;28;20039;-49
2023/07/24 00:50:45;;;;;;;10.57;5.47;;;17.30;99.90;;;;;;4951167;28;20460;-51
2023/07/24 00:53:15;;;;;;;9.05;5.18;;;17.20;99.90;;;;;;4954710;28;20046;-50
2023/07/24 00:55:41;;;;;;;12.68;5.80;;;17.20;99.90;;;;;;4953829;28;21046;-50
2023/07/24 00:58:10;;;;;;;11.32;5.60;;;17.10;99.90;;;;;;4934150;28;20043;-50
2023/07/24 01:00:38;;;;;;;11.20;6.20;;;17.20;99.90;;;;;;4951082;28;20729;-50
2023/07/24 01:03:03;;;;;;;14.77;5.43;;;17.10;99.90;;;;;;4950388;28;20095;-49
2023/07/24 01:05:30;;;;;;;13.88;5.93;;;17.10;99.90;;;;;;4937502;28;20552;-49
2023/07/24 01:07:56;;;;;;;14.93;6.50;;;17.10;99.90;;;;;;4948707;28;20038;-51
2023/07/24 01:10:21;;;;;;;14.65;6.65;;;17.00;99.90;;;;;;4946447;28;20097;-53
2023/07/24 01:13:04;;;;;;;11.65;6.07;;;17.00;99.90;;;;;;4948467;28;20075;-50
2023/07/24 01:15:32;;;;;;;;;;;16.90;99.90;;;;;;4947338;28;20050;-50
2023/07/24 01:18:03;;;;;;;11.95;6.93;;;16.90;99.90;;;;;;4949989;28;20289;-48
2023/07/24 01:20:30;;;;;;;12.05;7.18;;;16.80;99.90;;;;;;4950099;28;20111;-50
2023/07/24 01:23:34;;;;;;;15.88;7.28;;;16.80;99.90;;;;;;4952253;28;20046;-51
2023/07/24 01:26:02;;;;;;;11.80;7.00;;;16.80;99.90;;;;;;4893336;29;20127;-52
2023/07/24 01:28:28;;;;;;;13.55;7.13;;;16.80;99.90;;;;;;4940257;28;20051;-49
2023/07/24 01:30:55;;;;;;;14.02;7.15;;;16.70;99.90;;;;;;4952913;28;20185;-50
2023/07/24 01:33:22;;;;;;;10.32;6.95;;;16.70;99.90;;;;;;4956648;28;20035;-52
2023/07/24 01:35:57;;;;;;;13.52;7.20;;;16.70;99.90;;;;;;4949713;28;20042;-49
2023/07/24 01:38:27;;;;;;;13.65;6.70;;;16.70;99.90;;;;;;4926161;28;20141;-49
2023/07/24 01:40:56;;;;;;;16.10;6.97;;;16.70;99.90;;;;;;4951420;28;20404;-49
2023/07/24 01:43:23;;;;;;;11.25;7.38;;;16.70;99.90;;;;;;4952081;28;20308;-50
2023/07/24 01:45:48;;;;;;;10.18;6.97;;;16.70;99.90;;;;;;4949322;28;20174;-49
2023/07/24 01:48:14;;;;;;;14.68;7.75;;;16.70;99.90;;;;;;4935934;28;20039;-51
2023/07/24 01:50:40;;;;;;;13.63;7.97;;;16.60;99.90;;;;;;4932394;28;20134;-53
2023/07/24 01:53:05;;;;;;;13.07;8.20;;;16.60;99.90;;;;;;4952095;28;20054;-49
2023/07/24 01:55:31;;;;;;;12.23;8.00;;;16.60;99.90;;;;;;4965360;28;20050;-50
2023/07/24 01:57:57;;;;;;;14.43;9.05;;;16.60;99.90;;;;;;4947862;28;20043;-52
2023/07/24 02:00:22;;;;;;;14.93;9.50;;;16.60;99.90;;;;;;4952509;28;20047;-53
2023/07/24 02:02:48;;;;;;;16.83;9.35;;;16.60;99.90;;;;;;4953290;28;20074;-50
2023/07/24 02:05:14;;;;;;;16.52;9.43;;;16.60;99.90;;;;;;4952366;28;20043;-51
2023/07/24 02:07:39;;;;;;;13.30;8.70;;;16.60;99.90;;;;;;4952437;28;20058;-52
2023/07/24 02:10:06;;;;;;;13.65;9.50;;;16.60;99.90;;;;;;4948234;28;20560;-50
2023/07/24 02:12:31;;;;;;;15.68;9.95;;;16.60;99.90;;;;;;4950905;28;20035;-48
2023/07/24 02:14:57;;;;;;;16.73;10.23;;;16.70;99.90;;;;;;4951383;28;20053;-49
2023/07/24 02:17:23;;;;;;;15.82;10.57;;;16.70;99.90;;;;;;4952943;28;20484;-49
2023/07/24 02:19:49;;;;;;;14.68;10.23;;;16.70;99.90;;;;;;4938316;28;20054;-49
2023/07/24 02:22:15;;;;;;;15.48;10.60;;;16.70;99.90;;;;;;4954710;28;20549;-51
2023/07/24 02:24:41;;;;;;;14.98;9.95;;;16.60;99.90;;;;;;4953810;28;20050;-50
2023/07/24 02:27:07;;;;;;;14.95;10.40;;;16.60;99.90;;;;;;4956546;28;20039;-51
2023/07/24 02:29:33;;;;;;;17.35;10.82;;;16.60;99.90;;;;;;4938457;28;20535;-51
2023/07/24 02:31:59;;;;;;;16.25;10.45;;;16.60;99.90;;;;;;4952360;28;20050;-50
2023/07/24 02:34:26;;;;;;;14.48;10.00;;;16.50;99.90;;;;;;4938707;28;20042;-50
2023/07/24 02:36:53;;;;;;;14.80;9.98;;;16.50;99.90;;;;;;4952674;28;20138;-50
2023/07/24 02:39:19;;;;;;;16.95;10.85;;;16.50;99.90;;;;;;4952519;28;20218;-50
2023/07/24 02:41:46;;;;;;;16.92;11.45;;;16.50;99.90;;;;;;4952099;28;20094;-52
2023/07/24 02:44:12;;;;;;;17.50;10.65;;;16.40;99.90;;;;;;4954420;28;20544;-49
2023/07/24 02:46:37;;;;;;;17.00;11.88;;;16.50;99.90;;;;;;4945163;28;20113;-50
2023/07/24 02:49:03;;;;;;;19.75;11.35;;;16.50;99.90;;;;;;4936645;28;20050;-49
2023/07/24 02:51:29;;;;;;;16.52;11.00;;;16.50;99.90;;;;;;4957967;28;20038;-53
2023/07/24 02:53:55;;;;;;;17.48;11.75;;;16.50;99.90;;;;;;4950669;28;20034;-50
2023/07/24 02:56:21;;;;;;;17.95;11.80;;;16.50;99.90;;;;;;4951413;28;20107;-51
2023/07/24 02:58:47;;;;;;;21.15;12.02;;;16.50;99.90;;;;;;4948973;28;20053;-51
2023/07/24 03:01:14;;;;;;;18.88;11.50;;;16.60;99.90;;;;;;4951166;28;20058;-50
2023/07/24 03:03:41;;;;;;;18.20;11.80;;;16.60;99.90;;;;;;4938849;28;20054;-51
2023/07/24 03:06:07;;;;;;;21.67;11.82;;;16.60;99.90;;;;;;4939430;28;20047;-49
2023/07/24 03:08:33;;;;;;;17.58;11.68;;;16.60;99.90;;;;;;4953517;28;20038;-49
2023/07/24 03:10:59;;;;;;;20.52;11.90;;;16.70;99.90;;;;;;4950310;28;20043;-49
2023/07/24 03:13:25;;;;;;;16.45;11.45;;;16.70;99.90;;;;;;4950680;28;20058;-52
2023/07/24 03:15:58;;;;;;;16.50;11.23;;;16.70;99.90;;;;;;4950234;28;20043;-50
2023/07/24 03:18:25;;;;;;;17.10;11.10;;;16.70;99.90;;;;;;4936526;28;21731;-50
2023/07/24 03:20:51;;;;;;;15.02;11.38;;;16.80;99.90;;;;;;4931432;28;20046;-50
2023/07/24 03:23:17;;;;;;;15.23;10.85;;;16.70;99.90;;;;;;4947075;28;20045;-51
2023/07/24 03:25:43;;;;;;;16.20;10.98;;;16.70;99.90;;;;;;4947111;28;20054;-49
2023/07/24 03:28:09;;;;;;;16.40;10.45;;;16.70;99.90;;;;;;4944416;28;20134;-50
2023/07/24 03:30:35;;;;;;;19.48;10.57;;;16.80;99.90;;;;;;4944627;28;20057;-52
2023/07/24 03:33:02;;;;;;;21.42;10.52;;;16.80;99.90;;;;;;4944626;28;20035;-49
2023/07/24 03:35:27;;;;;;;15.20;9.52;;;16.80;99.90;;;;;;4948164;28;22355;-52
2023/07/24 03:37:53;;;;;;;15.25;9.57;;;16.80;99.90;;;;;;4944638;28;20594;-51
2023/07/24 03:40:19;;;;;;;15.68;9.60;;;16.80;99.90;;;;;;4931922;28;20543;-50
2023/07/24 03:42:44;;;;;;;14.60;9.27;;;16.80;99.90;;;;;;4947025;28;20043;-51
2023/07/24 03:45:10;;;;;;;15.65;9.32;;;16.80;99.90;;;;;;4936114;28;20582;-49
2023/07/24 03:47:36;;;;;;;16.85;9.43;;;16.80;99.90;;;;;;4941861;28;20102;-53
2023/07/24 03:50:01;;;;;;;17.52;9.43;;;16.80;99.90;;;;;;4933499;28;20037;-52
2023/07/24 03:52:27;;;;;;;15.50;9.18;;;16.80;99.90;;;;;;4946080;28;20043;-52
2023/07/24 03:54:53;;;;;;;14.15;8.55;;;16.90;99.90;;;;;;4947036;28;20051;-50
2023/07/24 03:57:19;;;;;;;13.10;9.27;;;16.90;99.90;;;;;;4947371;28;20039;-50
2023/07/24 03:59:45;;;;;;;19.48;9.35;;;16.90;99.90;;;;;;4948100;28;20043;-49
2023/07/24 04:02:11;;;;;;;14.90;9.18;;;16.90;99.90;;;;;;4924986;28;20725;-50
2023/07/24 04:04:37;;;;;;;13.40;8.25;;;16.90;99.90;;;;;;4914279;28;20047;-49
2023/07/24 04:07:03;;;;;;;14.30;8.57;;;16.90;99.90;;;;;;4945971;28;20137;-51
2023/07/24 04:09:29;;;;;;;11.95;8.25;;;16.90;99.90;;;;;;4948711;28;20118;-50
2023/07/24 04:11:55;;;;;;;12.32;7.80;;;17.00;99.90;;;;;;4931867;28;20049;-51
2023/07/24 04:14:20;;;;;;;14.32;8.07;;;17.00;99.90;;;;;;4944348;28;20133;-49
2023/07/24 04:16:46;;;;;;;13.68;8.38;;;17.00;99.90;;;;;;4947975;28;20078;-50
2023/07/24 04:19:12;;;;;;;13.88;8.40;;;17.00;99.90;;;;;;4934106;28;20165;-49
2023/07/24 04:21:38;;;;;;;14.00;8.82;;;17.00;99.90;;;;;;4938364;28;20431;-49
2023/07/24 04:24:04;;;;;;;12.30;8.48;;;17.00;99.90;;;;;;4946493;28;20679;-50
2023/07/24 04:26:29;;;;;;;14.25;8.60;;;17.00;99.90;;;;;;4945101;28;20043;-49
2023/07/24 04:28:55;;;;;;;14.43;8.13;;;17.00;99.90;;;;;;4946299;28;22180;-51
2023/07/24 04:31:21;;;;;;;11.68;8.38;;;17.00;99.90;;;;;;4940071;28;20054;-48
2023/07/24 04:33:46;;;;;;;14.25;7.80;;;17.00;99.90;;;;;;4945200;28;20149;-50
2023/07/24 04:36:12;;;;;;;13.52;8.48;;;17.00;99.90;;;;;;4944736;28;20054;-49
2023/07/24 04:38:38;;;;;;;13.82;7.88;;;17.00;99.90;;;;;;4915863;28;20133;-51
2023/07/24 04:41:04;;;;;;;14.73;7.88;;;17.00;99.90;;;;;;4939806;28;20410;-50
2023/07/24 04:43:30;;;;;;;15.93;8.45;;;17.00;99.90;;;;;;4947303;28;20078;-52
2023/07/24 04:45:55;;;;;;;15.80;8.55;;;17.00;99.90;;;;;;4932767;28;20046;-50
2023/07/24 04:48:21;;;;;;;12.32;8.68;;;17.00;99.90;;;;;;4948419;28;20046;-49
2023/07/24 04:50:53;;;;;;;11.73;8.93;;;17.10;99.90;;;;;;4947913;28;20042;-49
2023/07/24 04:53:19;;;;;;;13.87;8.80;;;17.00;99.90;;;;;;4934558;28;20063;-50
2023/07/24 04:55:46;;;;;;;13.73;9.13;;;17.00;99.90;;;;;;4942224;28;20209;-52
2023/07/24 04:58:11;;;;;;;16.08;9.10;;;17.10;99.90;;;;;;4945944;28;20042;-50
2023/07/24 05:00:37;;;;;;;13.65;9.30;;;17.10;99.90;;;;;;4947042;28;20053;-52
2023/07/24 05:03:03;;;;;;;13.60;9.20;;;17.10;99.90;;;;;;4927683;28;20496;-52
2023/07/24 05:05:30;;;;;;;12.30;9.57;;;17.10;99.90;;;;;;4944124;28;20042;-50
2023/07/24 05:07:56;;;;;;;15.30;9.90;;;17.10;99.90;;;;;;4944884;28;20038;-53
2023/07/24 05:10:22;;;;;;;12.63;9.68;;;17.10;99.90;;;;;;4944557;28;20042;-50
2023/07/24 05:12:47;;;;;;;13.18;9.35;;;17.10;99.90;;;;;;4945648;28;20054;-52
2023/07/24 05:15:16;;;;;;;14.45;9.68;;;17.10;99.90;;;;;;4947403;28;20693;-52
2023/07/24 05:17:45;;;;;;;15.60;10.00;;;17.10;99.90;;;;;;4928986;28;20472;-49
2023/07/24 05:20:11;;;;;;;12.98;10.07;;;17.20;99.90;;;;;;4935689;28;20134;-49
2023/07/24 05:22:37;;;;;;;15.88;10.18;;;17.20;99.90;;;;;;4941335;28;20053;-51
2023/07/24 05:25:03;;;;;;;15.10;9.80;;;17.20;99.90;;;;;;4946594;28;20497;-50
2023/07/24 05:27:29;;;;;;;15.18;10.52;;;17.20;99.90;;;;;;4940346;28;20043;-50
2023/07/24 05:29:55;;;;;;;14.23;10.10;;;17.30;99.90;;;;;;4928607;28;20076;-51
2023/07/24 05:32:21;;;;;;;16.80;10.23;;;17.20;99.90;;;;;;4937587;28;20050;-52
2023/07/24 05:34:47;;;;;;;15.18;11.00;;;17.30;99.90;;;;;;4931838;28;20062;-52
2023/07/24 05:37:12;;;;;;;16.38;9.98;;;17.40;99.90;;;;;;4940750;28;20113;-51
2023/07/24 05:39:38;;;;;;;14.35;10.07;;;17.40;99.90;;;;;;4944965;28;20064;-49
2023/07/24 05:42:04;;;;;;;13.40;10.07;;;17.30;99.90;;;;;;4944921;28;20057;-50
2023/07/24 05:44:30;;;;;;;13.52;9.75;;;17.40;99.90;;;;;;4946143;28;20038;-51
2023/07/24 05:46:55;;;;;;;14.60;9.95;;;17.40;99.90;;;;;;4944149;28;20070;-50
2023/07/24 05:49:21;;;;;;;12.45;9.52;;;17.40;99.90;;;;;;4939650;28;20557;-49
2023/07/24 05:51:47;;;;;;;14.18;9.30;;;17.40;99.90;;;;;;4935506;28;20035;-49
2023/07/24 05:54:12;;;;;;;17.40;10.32;;;17.40;99.90;;;;;;4934642;28;20489;-49
2023/07/24 05:56:38;;;;;;;15.95;10.27;;;17.40;99.90;;;;;;4939129;28;20146;-50
2023/07/24 05:59:04;;;;;;;16.60;10.65;;;17.40;99.90;;;;;;4948873;28;20077;-51
2023/07/24 06:01:29;;;;;;;13.48;9.95;;;17.40;99.90;;;;;;4951221;28;20082;-49
2023/07/24 06:03:55;;;;;;;15.50;10.43;;;17.40;99.90;;;;;;4950820;28;20778;-52
2023/07/24 06:06:21;;;;;;;13.85;10.23;;;17.40;99.90;;;;;;4934927;28;20054;-49
2023/07/24 06:08:47;;;;;;;12.98;9.90;;;17.40;99.90;;;;;;4950875;28;20569;-49
2023/07/24 06:11:13;;;;;;;16.85;10.60;;;17.40;99.90;;;;;;4947217;28;20130;-50
2023/07/24 06:13:38;;;;;;;14.07;9.40;;;17.40;99.90;;;;;;4943777;28;20347;-49
2023/07/24 06:16:04;;;;;;;13.43;9.98;;;17.40;99.90;;;;;;4935226;28;20129;-49
2023/07/24 06:18:30;;;;;;;14.50;9.68;;;17.40;99.90;;;;;;4952703;28;20058;-50
2023/07/24 06:20:56;;;;;;;15.55;10.15;;;17.50;99.90;;;;;;4952928;28;20722;-52
2023/07/24 06:23:21;;;;;;;18.33;10.02;;;17.50;99.90;;;;;;4954492;28;20105;-49
2023/07/24 06:25:47;;;;;;;19.23;10.13;;;17.50;99.90;;;;;;4951988;28;20051;-50
2023/07/24 06:28:13;;;;;;;19.33;9.80;;;17.60;99.90;;;;;;4953147;28;20094;-49
2023/07/24 06:30:39;;;;;;;15.95;10.45;;;17.70;99.90;;;;;;4954835;28;20042;-49
2023/07/24 06:33:05;;;;;;;15.45;9.63;;;17.70;99.90;;;;;;4945591;28;20813;-50
2023/07/24 06:35:31;;;;;;;18.17;8.80;;;17.70;99.90;;;;;;4952267;28;20158;-50
2023/07/24 06:37:56;;;;;;;11.25;9.38;;;17.80;99.90;;;;;;4949151;28;20034;-50
2023/07/24 06:40:22;;;;;;;16.73;9.70;;;17.80;99.90;;;;;;4939859;28;20058;-50
2023/07/24 06:42:49;;;;;;;15.55;9.65;;;17.90;99.90;;;;;;4949788;28;20055;-50
2023/07/24 06:45:15;;;;;;;14.75;9.70;;;17.90;99.90;;;;;;4954843;28;20077;-49
2023/07/24 06:47:41;;;;;;;17.35;9.63;;;18.00;99.90;;;;;;4949891;28;20050;-49
2023/07/24 06:50:07;;;;;;;14.35;9.30;;;18.00;99.90;;;;;;4949136;28;20049;-50
2023/07/24 06:52:33;;;;;;;17.15;9.52;;;18.00;99.90;;;;;;4952153;28;20077;-52
2023/07/24 06:54:59;;;;;;;11.90;9.05;;;18.00;99.90;;;;;;4950793;28;20036;-50
2023/07/24 06:57:25;;;;;;;14.63;9.70;;;18.10;99.90;;;;;;4954394;28;20057;-52
2023/07/24 06:59:51;;;;;;;16.27;9.55;;;18.10;99.90;;;;;;4949133;28;20905;-50
2023/07/24 07:02:17;;;;;;;16.42;9.48;;;18.20;99.90;;;;;;4949103;28;20493;-49
2023/07/24 07:04:43;;;;;;;14.85;9.63;;;18.20;99.90;;;;;;4949938;28;20081;-53
2023/07/24 07:07:10;;;;;;;17.30;8.77;;;18.20;99.90;;;;;;4952377;28;20089;-49
2023/07/24 07:09:35;;;;;;;15.80;8.85;;;18.30;99.90;;;;;;4951849;28;20047;-48
2023/07/24 07:12:01;;;;;;;15.50;9.30;;;18.30;99.90;;;;;;4951588;28;20087;-51
2023/07/24 07:14:27;;;;;;;12.18;8.73;;;18.40;99.90;;;;;;4951443;28;20070;-51
2023/07/24 07:16:52;;;;;;;17.02;9.25;;;18.40;99.90;;;;;;4951892;28;20047;-49
2023/07/24 07:19:18;;;;;;;15.48;8.73;;;18.50;99.90;;;;;;4950038;28;20055;-49
2023/07/24 07:21:44;;;;;;;16.52;9.73;;;18.50;99.90;;;;;;4952274;28;20138;-53
2023/07/24 07:24:09;;;;;;;17.27;9.15;;;18.60;99.90;;;;;;4952477;28;20092;-49
2023/07/24 07:26:35;;;;;;;16.67;9.60;;;18.60;99.90;;;;;;4950413;28;20058;-50
2023/07/24 07:29:01;;;;;;;17.77;9.40;;;18.60;99.90;;;;;;4951464;28;20521;-49
2023/07/24 07:31:27;;;;;;;14.35;9.05;;;18.70;99.90;;;;;;4953222;28;20050;-49
2023/07/24 07:33:52;;;;;;;14.43;8.90;;;18.70;99.90;;;;;;4952177;28;20058;-49
2023/07/24 07:36:18;;;;;;;14.90;8.93;;;18.70;99.90;;;;;;4952496;28;20074;-52
2023/07/24 07:38:44;;;;;;;15.98;8.82;;;18.70;99.90;;;;;;4952407;28;20039;-49
2023/07/24 07:41:10;;;;;;;15.77;9.05;;;18.80;99.90;;;;;;4941560;28;20050;-50
2023/07/24 07:43:36;;;;;;;13.57;9.05;;;18.90;99.90;;;;;;4945869;28;20050;-49
2023/07/24 07:46:02;;;;;;;16.65;8.30;;;18.90;99.90;;;;;;4947840;28;20058;-51
2023/07/24 07:48:28;;;;;;;13.55;8.25;;;19.00;99.90;;;;;;4948745;28;20174;-49
2023/07/24 07:50:55;;;;;;;21.85;8.65;;;19.10;99.90;;;;;;4947323;28;20558;-50
2023/07/24 07:53:20;;;;;;;15.07;7.93;;;19.10;99.90;;;;;;4945524;28;20050;-51
2023/07/24 07:55:46;;;;;;;15.50;8.07;;;19.20;99.90;;;;;;4945574;28;20086;-51
2023/07/24 07:58:12;;;;;;;16.70;8.45;;;19.20;99.90;;;;;;4947536;28;20200;-50
2023/07/24 08:00:41;;;;;;;13.65;8.13;;;19.30;99.90;;;;;;4947524;28;20038;-48
2023/07/24 08:03:06;;;;;;;14.82;8.27;;;19.40;99.90;;;;;;4930117;28;20047;-53
2023/07/24 08:05:32;;;;;;;20.10;8.07;;;19.60;99.90;;;;;;4932953;28;20073;-52
2023/07/24 08:07:58;;;;;;;12.65;7.30;;;19.60;99.90;;;;;;4945591;28;20062;-51
2023/07/24 08:10:24;;;;;;;14.23;7.82;;;19.70;99.90;;;;;;4948448;28;20170;-53
2023/07/24 08:12:50;;;;;;;14.40;7.28;;;19.80;99.90;;;;;;4933199;28;20074;-49
2023/07/24 08:15:15;;;;;;;13.57;7.80;;;19.90;99.90;;;;;;4946876;28;20050;-49
2023/07/24 08:17:41;;;;;;;20.38;8.20;;;20.00;99.90;;;;;;4947843;28;20058;-49
2023/07/24 08:20:07;;;;;;;14.88;7.03;;;20.00;99.90;;;;;;4961830;28;20057;-50
2023/07/24 08:22:33;;;;;;;11.80;6.43;;;20.00;99.90;;;;;;4952091;28;20085;-51
2023/07/24 08:24:59;;;;;;;15.75;6.80;;;20.00;99.90;;;;;;4947529;28;20039;-48
2023/07/24 08:27:24;;;;;;;12.18;6.72;;;20.10;99.90;;;;;;4954641;28;20042;-49
2023/07/24 08:29:52;;;;;;;12.50;6.25;;;20.00;99.90;;;;;;4950599;28;20165;-49
2023/07/24 08:32:18;;;;;;;14.32;7.13;;;20.00;99.90;;;;;;4945304;28;20553;-48
2023/07/24 08:34:44;;;;;;;14.30;6.93;;;20.00;99.90;;;;;;4947710;28;20054;-49
2023/07/24 08:37:11;;;;;;;12.88;6.63;;;20.00;99.90;;;;;;4948291;28;20478;-50
2023/07/24 08:39:38;;;;;;;14.82;6.47;;;20.00;99.90;;;;;;4948207;28;20451;-50
2023/07/24 08:42:12;;;;;;;15.98;6.70;;;20.00;99.90;;;;;;4946957;28;20047;-49
2023/07/24 08:44:38;;;;;;;11.88;6.32;;;20.00;99.90;;;;;;4937344;28;20059;-49
2023/07/24 08:47:06;;;;;;;15.73;6.63;;;20.00;99.90;;;;;;4945779;28;20047;-49
2023/07/24 08:49:33;;;;;;;15.50;6.68;;;20.00;99.90;;;;;;4937006;28;20241;-49
2023/07/24 08:52:01;;;;;;;12.10;6.45;;;20.00;99.90;;;;;;4931181;28;20043;-49
2023/07/24 08:54:27;;;;;;;15.70;6.80;;;20.10;99.90;;;;;;4943993;28;20047;-49
2023/07/24 08:56:53;;;;;;;10.10;6.28;;;20.10;99.90;;;;;;4944853;28;21357;-50
2023/07/24 08:59:19;;;;;;;14.18;6.35;;;20.10;99.90;;;;;;4927684;28;20046;-49
2023/07/24 09:01:45;;;;;;;16.10;7.15;;;20.20;99.90;;;;;;4914621;28;20097;-52
2023/07/24 09:04:11;;;;;;;14.32;6.57;;;20.20;99.90;;;;;;4945705;28;20256;-51
2023/07/24 09:06:37;;;;;;;12.57;6.47;;;20.20;99.90;;;;;;4945086;28;20395;-49
2023/07/24 09:09:15;;;;;;;11.77;6.20;;;20.30;99.90;;;;;;4943508;28;20039;-49
2023/07/24 09:11:50;;;;;;;16.20;6.80;;;20.20;99.90;;;;;;4945564;28;20078;-49
2023/07/24 09:14:27;;;;;;;15.68;6.90;;;20.30;99.90;;;;;;4943759;28;20079;-49
2023/07/24 09:17:07;;;;;;;19.52;6.90;;;20.40;99.90;;;;;;4945556;28;20055;-50
2023/07/24 09:19:33;;;;;;;12.43;6.20;;;20.40;99.90;;;;;;4936882;28;20531;-49
2023/07/24 09:22:13;;;;;;;13.00;6.50;;;20.40;99.90;;;;;;4933633;28;20519;-49
2023/07/24 09:24:53;;;;;;;16.20;6.68;;;20.50;99.90;;;;;;4945303;28;20050;-50
2023/07/24 09:27:19;;;;;;;10.77;5.97;;;20.60;99.90;;;;;;4943682;28;20096;-49
2023/07/24 09:29:46;;;;;;;13.15;6.72;;;20.60;99.90;;;;;;4946802;28;20042;-48
2023/07/24 09:32:26;;;;;;;10.85;5.97;;;20.60;99.90;;;;;;4941549;28;20043;-49
2023/07/24 09:34:53;;;;;;;11.73;6.50;;;20.60;99.90;;;;;;4931293;28;20509;-51
2023/07/24 09:37:38;;;;;;;12.73;6.00;;;20.60;99.90;;;;;;4942524;28;20111;-48
2023/07/24 09:40:04;;;;;;;14.20;6.25;;;20.80;99.90;;;;;;4946645;28;20043;-53
2023/07/24 09:42:35;;;;;;;11.43;6.22;;;20.90;99.90;;;;;;4946708;28;20078;-50
2023/07/24 09:45:05;;;;;;;8.60;5.38;;;21.10;99.90;;;;;;4949996;28;20076;-50
2023/07/24 09:47:31;;;;;;;13.00;6.05;;;21.30;99.90;;;;;;4941884;28;20047;-48
2023/07/24 09:49:58;;;;;;;11.10;5.80;;;21.50;99.90;;;;;;4946484;28;20035;-50
2023/07/24 09:52:27;;;;;;;12.82;5.57;;;21.60;99.90;;;;;;4940592;28;20397;-49
2023/07/24 09:55:15;;;;;;;11.23;5.72;;;21.60;99.90;;;;;;4941855;28;20512;-52
2023/07/24 09:57:43;;;;;;;9.05;6.05;;;21.60;99.90;;;;;;4951709;28;20389;-49
2023/07/24 10:00:09;;;;;;;11.45;6.50;;;21.60;99.90;;;;;;4948879;28;20055;-52
2023/07/24 10:02:36;;;;;;;14.52;6.45;;;21.60;99.90;;;;;;4952183;28;20047;-48
2023/07/24 10:05:02;;;;;;;13.27;6.30;;;21.70;99.90;;;;;;4949820;28;20077;-49
2023/07/24 10:07:28;;;;;;;11.55;6.50;;;21.90;99.90;;;;;;4951941;28;20840;-49
2023/07/24 10:09:55;;;;;;;12.32;6.43;;;22.10;99.90;;;;;;4952830;28;20093;-48
2023/07/24 10:12:22;;;;;;;8.57;5.38;;;22.30;99.90;;;;;;4949146;28;20119;-49
2023/07/24 10:14:48;;;;;;;12.02;4.90;;;22.60;99.90;;;;;;4947998;28;20130;-48
2023/07/24 10:17:14;;;;;;;12.30;5.32;;;22.70;99.90;;;;;;4932394;28;20050;-49
2023/07/24 10:19:43;;;;;;;10.63;5.22;;;22.80;99.90;;;;;;4950021;28;21251;-49
2023/07/24 10:22:18;;;;;;;11.70;5.63;;;23.10;99.90;;;;;;4949966;28;20051;-50
2023/07/24 10:24:44;;;;;;;12.82;7.10;;;23.40;99.90;;;;;;4949592;28;20075;-49
2023/07/24 10:27:11;;;;;;;10.95;6.55;;;23.70;99.90;;;;;;4945882;28;22022;-48
2023/07/24 10:29:38;;;;;;;10.32;6.57;;;23.90;99.90;;;;;;4946619;28;20047;-49
2023/07/24 10:32:16;;;;;;;9.15;5.70;;;24.10;99.90;;;;;;4948953;28;20046;-50
2023/07/24 10:34:42;;;;;;;8.05;4.45;;;24.10;99.90;;;;;;4948971;28;20046;-49
2023/07/24 10:37:09;;;;;;;9.38;4.70;;;24.10;99.90;;;;;;4953148;28;20035;-48
2023/07/24 10:39:41;;;;;;;7.45;3.78;;;23.90;99.90;;;;;;4952431;28;20556;-49
2023/07/24 10:42:09;;;;;;;8.70;3.60;;;23.50;99.90;;;;;;4923409;28;20512;-49
2023/07/24 10:44:35;;;;;;;7.53;3.28;;;23.10;99.90;;;;;;4953724;28;20078;-48
2023/07/24 10:47:01;;;;;;;6.95;3.40;;;22.80;99.90;;;;;;4954277;28;20535;-48
2023/07/24 10:49:27;;;;;;;6.40;3.55;;;22.60;99.90;;;;;;4949460;28;20066;-49
2023/07/24 10:51:59;;;;;;;8.23;3.80;;;22.50;99.90;;;;;;4952689;28;20054;-49
2023/07/24 10:54:25;;;;;;;6.75;4.70;;;22.40;99.90;;;;;;4949451;28;20054;-49
2023/07/24 10:56:59;;;;;;;9.18;4.45;;;22.30;99.90;;;;;;4931128;28;20069;-48
2023/07/24 10:59:39;;;;;;;6.57;4.63;;;22.10;99.90;;;;;;4948585;28;20054;-49
2023/07/24 11:02:04;;;;;;;6.05;4.43;;;22.00;99.90;;;;;;4948042;28;20046;-48
2023/07/24 11:04:30;;;;;;;6.95;3.75;;;21.90;99.90;;;;;;4930907;28;22021;-50
2023/07/24 11:06:57;;;;;;;7.28;4.40;;;21.70;99.90;;;;;;4950335;28;20843;-49
2023/07/24 11:09:33;;;;;;;8.95;4.32;;;21.60;99.90;;;;;;4948476;28;20043;-49
2023/07/24 11:11:59;;;;;;;7.82;4.40;;;21.50;99.90;;;;;;4952478;28;20051;-49
2023/07/24 11:14:25;;;;;;;7.28;5.10;;;21.50;99.90;;;;;;4949227;28;20303;-49
2023/07/24 11:16:51;;;;;;;9.52;5.63;;;21.60;99.90;;;;;;4952211;28;20327;-48
2023/07/24 11:19:24;;;;;;;8.07;5.25;;;21.60;99.90;;;;;;4947043;28;20052;-50
2023/07/24 11:21:50;;;;;;;18.45;6.22;;;21.50;99.90;;;;;;4947232;28;20039;-50
2023/07/24 11:24:17;;;;;;;7.13;4.88;;;21.40;99.90;;;;;;4936442;28;20045;-50
2023/07/24 11:26:43;;;;;;;8.75;5.47;;;21.40;99.90;;;;;;4946991;28;20162;-49
2023/07/24 11:29:13;;;;;;;10.90;5.25;;;21.40;99.90;;;;;;4947328;28;20039;-49
2023/07/24 11:31:39;;;;;;;9.07;5.80;;;21.50;99.90;;;;;;4946935;28;20050;-49
2023/07/24 11:34:05;;;;;;;9.80;5.90;;;21.60;99.90;;;;;;4947127;28;20377;-49
2023/07/24 11:36:32;;;;;;;9.73;6.03;;;21.70;99.90;;;;;;4946169;28;20508;-48
2023/07/24 11:38:58;;;;;;;9.25;6.25;;;21.80;99.90;;;;;;4929725;28;20498;-48
2023/07/24 11:41:25;;;;;;;8.80;5.78;;;21.90;99.90;;;;;;4947422;28;20071;-50
2023/07/24 11:43:51;;;;;;;9.18;5.28;;;22.00;99.90;;;;;;4946580;28;20043;-49
2023/07/24 11:46:24;;;;;;;9.60;5.00;;;22.10;99.90;;;;;;4949312;28;20078;-49
2023/07/24 11:48:53;;;;;;;10.18;5.47;;;22.10;99.90;;;;;;4943923;28;20038;-52
2023/07/24 11:51:19;;;;;;;7.15;4.88;;;22.20;99.90;;;;;;4957711;28;20078;-49
2023/07/24 11:53:45;;;;;;;7.70;5.50;;;22.50;99.90;;;;;;4946737;28;20038;-48
2023/07/24 11:56:15;;;;;;;8.13;5.38;;;22.60;99.90;;;;;;4931942;28;20047;-50
2023/07/24 11:58:41;;;;;;;9.10;4.82;;;22.70;99.90;;;;;;4949952;28;20416;-48
2023/07/24 12:01:06;;;;;;;9.75;5.13;;;22.70;99.90;;;;;;4953176;28;20089;-49
2023/07/24 12:03:32;;;;;;;8.43;5.25;;;22.80;99.90;;;;;;4939193;28;20501;-48
2023/07/24 12:05:58;;;;;;;7.72;5.03;;;22.80;99.90;;;;;;4949780;28;20119;-49
2023/07/24 12:08:34;;;;;;;8.95;4.80;;;22.70;99.90;;;;;;4951017;28;20038;-49
2023/07/24 12:11:01;;;;;;;5.93;4.50;;;22.60;99.90;;;;;;4922934;28;20373;-49
2023/07/24 12:13:28;;;;;;;7.55;5.20;;;22.40;99.90;;;;;;4949553;28;20043;-49
2023/07/24 12:15:54;;;;;;;7.68;5.20;;;22.10;99.90;;;;;;4952014;28;20316;-49
2023/07/24 12:18:20;;;;;;;17.50;7.28;;;21.90;99.90;;;;;;4945709;28;20410;-50
2023/07/24 12:20:45;;;;;;;17.67;7.00;;;21.70;99.90;;;;;;4948914;28;20049;-50
2023/07/24 12:23:11;;;;;;;12.25;6.95;;;21.40;99.90;;;;;;4950153;28;20096;-49
2023/07/24 12:25:37;;;;;;;12.18;6.53;;;21.20;99.90;;;;;;4951952;28;20047;-49
2023/07/24 12:28:03;;;;;;;9.70;5.32;;;21.00;99.90;;;;;;4947849;28;20070;-49
2023/07/24 12:30:28;;;;;;;7.50;5.18;;;20.90;99.90;;;;;;4948190;28;20058;-49
2023/07/24 12:32:54;;;;;;;9.05;5.50;;;20.70;99.90;;;;;;4949274;28;20433;-50
2023/07/24 12:35:20;;;;;;;7.43;5.10;;;20.60;99.90;;;;;;4949379;28;20054;-49
2023/07/24 12:37:46;;;;;;;8.82;5.45;;;20.40;99.90;;;;;;4947978;28;20133;-49